sensor_id;sensor_type;location;lat;lon;timestamp;pressure;altitude;pressure_sealevel;temperature;humidity
6514;BME280;3290;47.716;9.070;2022-07-23T00:02:06;97067.38;;;23.28;100.00
6514;BME280;3290;47.716;9.070;2022-07-23T00:04:33;97076.47;;;23.27;100.00
6514;BME280;3290;47.716;9.070;2022-07-23T00:06:58;97100.53;;;22.91;100.00
6514;BME280;3290;47.716;9.070;2022-07-23T00:09:23;97111.28;;;22.86;100.00
6514;BME280;3290;47.716;9.070;2022-07-23T00:11:49;97126.13;;;22.96;100.00
6514;BME280;3290;47.716;9.070;2022-07-23T00:14:14;97142.31;;;22.82;100.00
6514;BME280;3290;47.716;9.070;2022-07-23T00:16:39;97153.50;;;22.60;100.00
6514;BME280;3290;47.716;9.070;2022-07-23T00:19:05;97150.50;;;22.67;100.00
6514;BME280;3290;47.716;9.070;2022-07-23T00:21:30;97148.34;;;22.69;100.00
6514;BME280;3290;47.716;9.070;2022-07-23T00:23:56;97154.84;;;22.63;100.00
6514;BME280;3290;47.716;9.070;2022-07-23T00:26:21;97161.31;;;22.80;100.00
6514;BME280;3290;47.716;9.070;2022-07-23T00:28:46;97157.75;;;22.66;100.00
6514;BME280;3290;47.716;9.070;2022-07-23T00:31:12;97153.06;;;22.25;100.00
6514;BME280;3290;47.716;9.070;2022-07-23T00:33:37;97134.22;;;22.12;100.00
6514;BME280;3290;47.716;9.070;2022-07-23T00:36:03;97115.13;;;22.28;100.00
6514;BME280;3290;47.716;9.070;2022-07-23T00:38:28;97112.53;;;22.70;100.00
6514;BME280;3290;47.716;9.070;2022-07-23T00:40:54;97115.78;;;22.67;100.00
6514;BME280;3290;47.716;9.070;2022-07-23T00:43:20;97117.75;;;22.80;100.00
6514;BME280;3290;47.716;9.070;2022-07-23T00:45:47;97118.44;;;22.67;100.00
6514;BME280;3290;47.716;9.070;2022-07-23T00:48:12;97106.56;;;22.78;100.00
6514;BME280;3290;47.716;9.070;2022-07-23T00:50:38;97079.06;;;22.54;100.00
6514;BME280;3290;47.716;9.070;2022-07-23T00:53:04;97053.69;;;22.33;100.00
6514;BME280;3290;47.716;9.070;2022-07-23T00:55:30;97041.13;;;22.52;100.00
6514;BME280;3290;47.716;9.070;2022-07-23T00:57:56;97028.59;;;22.52;100.00
6514;BME280;3290;47.716;9.070;2022-07-23T01:00:22;97028.44;;;22.44;100.00
6514;BME280;3290;47.716;9.070;2022-07-23T01:02:47;97017.81;;;22.39;100.00
6514;BME280;3290;47.716;9.070;2022-07-23T01:05:13;97002.66;;;22.35;100.00
6514;BME280;3290;47.716;9.070;2022-07-23T01:07:38;96986.25;;;22.23;100.00
6514;BME280;3290;47.716;9.070;2022-07-23T01:10:05;96965.94;;;22.22;100.00
6514;BME280;3290;47.716;9.070;2022-07-23T01:12:51;96972.13;;;21.94;100.00
6514;BME280;3290;47.716;9.070;2022-07-23T01:15:17;96956.59;;;22.24;100.00
6514;BME280;3290;47.716;9.070;2022-07-23T01:17:42;96965.25;;;22.11;100.00
6514;BME280;3290;47.716;9.070;2022-07-23T01:20:08;96990.47;;;22.24;100.00
6514;BME280;3290;47.716;9.070;2022-07-23T01:22:33;97004.69;;;21.96;100.00
6514;BME280;3290;47.716;9.070;2022-07-23T01:24:59;97017.00;;;22.15;100.00
6514;BME280;3290;47.716;9.070;2022-07-23T01:27:24;97036.38;;;22.49;100.00
6514;BME280;3290;47.716;9.070;2022-07-23T01:29:49;97029.66;;;22.51;100.00
6514;BME280;3290;47.716;9.070;2022-07-23T01:32:15;97027.50;;;22.53;100.00
6514;BME280;3290;47.716;9.070;2022-07-23T01:34:40;97013.88;;;22.55;100.00
6514;BME280;3290;47.716;9.070;2022-07-23T01:37:06;96989.88;;;22.50;100.00
6514;BME280;3290;47.716;9.070;2022-07-23T01:39:31;96976.13;;;22.20;100.00
6514;BME280;3290;47.716;9.070;2022-07-23T01:41:57;96973.84;;;22.09;100.00
6514;BME280;3290;47.716;9.070;2022-07-23T01:44:22;96956.50;;;22.29;100.00
6514;BME280;3290;47.716;9.070;2022-07-23T01:46:47;96955.31;;;22.17;100.00
6514;BME280;3290;47.716;9.070;2022-07-23T01:49:13;96983.63;;;22.18;100.00
6514;BME280;3290;47.716;9.070;2022-07-23T01:51:38;96996.72;;;22.14;100.00
6514;BME280;3290;47.716;9.070;2022-07-23T01:54:23;96985.22;;;21.91;100.00
6514;BME280;3290;47.716;9.070;2022-07-23T01:56:49;96974.56;;;21.91;100.00
6514;BME280;3290;47.716;9.070;2022-07-23T01:59:14;96965.66;;;22.00;100.00
6514;BME280;3290;47.716;9.070;2022-07-23T02:01:39;96960.03;;;22.02;100.00
6514;BME280;3290;47.716;9.070;2022-07-23T02:04:05;96968.41;;;22.13;100.00
6514;BME280;3290;47.716;9.070;2022-07-23T02:06:30;96972.41;;;22.16;100.00
6514;BME280;3290;47.716;9.070;2022-07-23T02:08:56;96974.91;;;22.08;100.00
6514;BME280;3290;47.716;9.070;2022-07-23T02:11:21;96996.63;;;21.73;100.00
6514;BME280;3290;47.716;9.070;2022-07-23T02:13:46;96994.38;;;21.85;100.00
6514;BME280;3290;47.716;9.070;2022-07-23T02:16:11;97002.94;;;21.82;100.00
6514;BME280;3290;47.716;9.070;2022-07-23T02:18:37;96992.25;;;21.82;100.00
6514;BME280;3290;47.716;9.070;2022-07-23T02:21:02;96991.88;;;21.70;100.00
6514;BME280;3290;47.716;9.070;2022-07-23T02:23:28;96983.53;;;21.76;100.00
6514;BME280;3290;47.716;9.070;2022-07-23T02:25:53;96984.81;;;21.84;100.00
6514;BME280;3290;47.716;9.070;2022-07-23T02:28:19;96981.94;;;21.99;100.00
6514;BME280;3290;47.716;9.070;2022-07-23T02:30:44;96968.34;;;21.77;100.00
6514;BME280;3290;47.716;9.070;2022-07-23T02:33:10;96959.69;;;21.62;100.00
6514;BME280;3290;47.716;9.070;2022-07-23T02:35:35;96952.63;;;21.47;100.00
6514;BME280;3290;47.716;9.070;2022-07-23T02:38:01;96944.09;;;21.45;100.00
6514;BME280;3290;47.716;9.070;2022-07-23T02:40:26;96945.94;;;21.50;100.00
6514;BME280;3290;47.716;9.070;2022-07-23T02:42:52;96945.75;;;21.41;100.00
6514;BME280;3290;47.716;9.070;2022-07-23T02:45:17;96952.41;;;21.44;100.00
6514;BME280;3290;47.716;9.070;2022-07-23T02:47:42;96950.84;;;21.33;100.00
6514;BME280;3290;47.716;9.070;2022-07-23T02:50:08;96944.09;;;21.45;100.00
6514;BME280;3290;47.716;9.070;2022-07-23T02:52:33;96932.88;;;21.48;100.00
6514;BME280;3290;47.716;9.070;2022-07-23T02:54:59;96928.91;;;21.46;100.00
6514;BME280;3290;47.716;9.070;2022-07-23T02:57:24;96944.47;;;21.62;100.00
6514;BME280;3290;47.716;9.070;2022-07-23T02:59:50;96948.66;;;21.40;100.00
6514;BME280;3290;47.716;9.070;2022-07-23T03:02:15;96992.84;;;21.79;100.00
6514;BME280;3290;47.716;9.070;2022-07-23T03:04:40;97022.25;;;21.74;100.00
6514;BME280;3290;47.716;9.070;2022-07-23T03:07:08;97065.41;;;21.81;100.00
6514;BME280;3290;47.716;9.070;2022-07-23T03:09:34;97090.00;;;21.73;100.00
6514;BME280;3290;47.716;9.070;2022-07-23T03:11:59;97081.88;;;21.88;100.00
6514;BME280;3290;47.716;9.070;2022-07-23T03:14:25;97026.44;;;21.80;100.00
6514;BME280;3290;47.716;9.070;2022-07-23T03:16:50;96966.47;;;21.49;100.00
6514;BME280;3290;47.716;9.070;2022-07-23T03:19:15;96926.94;;;21.28;100.00
6514;BME280;3290;47.716;9.070;2022-07-23T03:21:41;96905.38;;;21.25;100.00
6514;BME280;3290;47.716;9.070;2022-07-23T03:24:09;96910.94;;;21.28;100.00
6514;BME280;3290;47.716;9.070;2022-07-23T03:26:35;96913.91;;;21.22;100.00
6514;BME280;3290;47.716;9.070;2022-07-23T03:29:00;96926.84;;;21.33;100.00
6514;BME280;3290;47.716;9.070;2022-07-23T03:31:26;96927.25;;;21.22;100.00
6514;BME280;3290;47.716;9.070;2022-07-23T03:33:51;96929.47;;;21.43;100.00
6514;BME280;3290;47.716;9.070;2022-07-23T03:36:17;96914.97;;;21.21;100.00
6514;BME280;3290;47.716;9.070;2022-07-23T03:38:42;96913.03;;;20.98;100.00
6514;BME280;3290;47.716;9.070;2022-07-23T03:41:08;96926.97;;;21.23;100.00
6514;BME280;3290;47.716;9.070;2022-07-23T03:43:33;96946.44;;;21.19;100.00
6514;BME280;3290;47.716;9.070;2022-07-23T03:45:58;96962.47;;;21.14;100.00
6514;BME280;3290;47.716;9.070;2022-07-23T03:48:24;96979.97;;;20.96;100.00
6514;BME280;3290;47.716;9.070;2022-07-23T03:50:49;96988.28;;;20.85;100.00
6514;BME280;3290;47.716;9.070;2022-07-23T03:53:14;96992.34;;;21.16;100.00
6514;BME280;3290;47.716;9.070;2022-07-23T03:55:40;96996.09;;;21.48;100.00
6514;BME280;3290;47.716;9.070;2022-07-23T03:58:05;97018.03;;;21.35;100.00
6514;BME280;3290;47.716;9.070;2022-07-23T04:00:31;97029.03;;;21.24;100.00
6514;BME280;3290;47.716;9.070;2022-07-23T04:02:56;97022.72;;;21.15;100.00
6514;BME280;3290;47.716;9.070;2022-07-23T04:05:21;97018.69;;;21.17;100.00
6514;BME280;3290;47.716;9.070;2022-07-23T04:07:47;97020.63;;;21.07;100.00
6514;BME280;3290;47.716;9.070;2022-07-23T04:10:12;97019.59;;;21.03;100.00
6514;BME280;3290;47.716;9.070;2022-07-23T04:12:38;97017.41;;;21.10;100.00
6514;BME280;3290;47.716;9.070;2022-07-23T04:15:04;97034.41;;;21.19;100.00
6514;BME280;3290;47.716;9.070;2022-07-23T04:17:29;97034.38;;;21.24;100.00
6514;BME280;3290;47.716;9.070;2022-07-23T04:19:55;97030.28;;;21.36;100.00
6514;BME280;3290;47.716;9.070;2022-07-23T04:22:20;97024.66;;;21.42;100.00
6514;BME280;3290;47.716;9.070;2022-07-23T04:24:45;97021.59;;;21.21;100.00
6514;BME280;3290;47.716;9.070;2022-07-23T04:27:11;97035.66;;;21.31;100.00
6514;BME280;3290;47.716;9.070;2022-07-23T04:29:36;97083.38;;;21.27;100.00
6514;BME280;3290;47.716;9.070;2022-07-23T04:32:02;97115.91;;;21.29;100.00
6514;BME280;3290;47.716;9.070;2022-07-23T04:34:28;97147.88;;;21.29;100.00
6514;BME280;3290;47.716;9.070;2022-07-23T04:36:53;97157.47;;;21.35;100.00
6514;BME280;3290;47.716;9.070;2022-07-23T04:39:19;97143.28;;;21.40;100.00
6514;BME280;3290;47.716;9.070;2022-07-23T04:41:44;97118.03;;;21.27;100.00
6514;BME280;3290;47.716;9.070;2022-07-23T04:44:10;97073.78;;;21.31;100.00
6514;BME280;3290;47.716;9.070;2022-07-23T04:46:35;97080.31;;;21.11;100.00
6514;BME280;3290;47.716;9.070;2022-07-23T04:49:00;97085.81;;;21.24;100.00
6514;BME280;3290;47.716;9.070;2022-07-23T04:51:26;97055.91;;;20.94;100.00
6514;BME280;3290;47.716;9.070;2022-07-23T04:53:51;97042.00;;;21.02;100.00
6514;BME280;3290;47.716;9.070;2022-07-23T04:56:17;97037.72;;;21.01;100.00
6514;BME280;3290;47.716;9.070;2022-07-23T04:58:42;97038.47;;;21.11;100.00
6514;BME280;3290;47.716;9.070;2022-07-23T05:01:08;97041.59;;;21.23;100.00
6514;BME280;3290;47.716;9.070;2022-07-23T05:03:33;97031.22;;;21.17;100.00
6514;BME280;3290;47.716;9.070;2022-07-23T05:05:59;97022.47;;;21.11;100.00
6514;BME280;3290;47.716;9.070;2022-07-23T05:08:24;97068.28;;;20.60;100.00
6514;BME280;3290;47.716;9.070;2022-07-23T05:10:50;97094.44;;;20.44;100.00
6514;BME280;3290;47.716;9.070;2022-07-23T05:13:15;97116.56;;;21.07;100.00
6514;BME280;3290;47.716;9.070;2022-07-23T05:15:42;97134.28;;;21.31;100.00
6514;BME280;3290;47.716;9.070;2022-07-23T05:18:07;97131.78;;;21.54;100.00
6514;BME280;3290;47.716;9.070;2022-07-23T05:20:32;97146.00;;;21.78;100.00
6514;BME280;3290;47.716;9.070;2022-07-23T05:22:58;97151.97;;;21.65;100.00
6514;BME280;3290;47.716;9.070;2022-07-23T05:25:23;97132.66;;;21.78;100.00
6514;BME280;3290;47.716;9.070;2022-07-23T05:27:49;97124.81;;;21.58;100.00
6514;BME280;3290;47.716;9.070;2022-07-23T05:30:14;97105.94;;;21.50;100.00
6514;BME280;3290;47.716;9.070;2022-07-23T05:32:39;97081.41;;;21.48;100.00
6514;BME280;3290;47.716;9.070;2022-07-23T05:35:06;97064.13;;;21.40;100.00
6514;BME280;3290;47.716;9.070;2022-07-23T05:37:31;97044.19;;;20.95;100.00
6514;BME280;3290;47.716;9.070;2022-07-23T05:40:03;97045.66;;;21.16;100.00
6514;BME280;3290;47.716;9.070;2022-07-23T05:42:31;97016.66;;;21.37;100.00
6514;BME280;3290;47.716;9.070;2022-07-23T05:44:57;97033.66;;;21.51;100.00
6514;BME280;3290;47.716;9.070;2022-07-23T05:47:22;97039.50;;;21.53;100.00
6514;BME280;3290;47.716;9.070;2022-07-23T05:49:48;97065.28;;;20.87;100.00
6514;BME280;3290;47.716;9.070;2022-07-23T05:52:13;97063.34;;;20.97;100.00
6514;BME280;3290;47.716;9.070;2022-07-23T05:54:39;97063.25;;;21.50;100.00
6514;BME280;3290;47.716;9.070;2022-07-23T05:57:04;97094.22;;;20.98;100.00
6514;BME280;3290;47.716;9.070;2022-07-23T05:59:30;97091.91;;;21.29;100.00
6514;BME280;3290;47.716;9.070;2022-07-23T06:01:55;97085.66;;;21.11;100.00
6514;BME280;3290;47.716;9.070;2022-07-23T06:04:21;97079.72;;;21.19;100.00
6514;BME280;3290;47.716;9.070;2022-07-23T06:06:46;97068.13;;;21.43;100.00
6514;BME280;3290;47.716;9.070;2022-07-23T06:09:12;97070.81;;;21.99;100.00
6514;BME280;3290;47.716;9.070;2022-07-23T06:11:39;97070.72;;;21.81;100.00
6514;BME280;3290;47.716;9.070;2022-07-23T06:14:04;97050.44;;;21.80;100.00
6514;BME280;3290;47.716;9.070;2022-07-23T06:16:30;97052.75;;;21.63;100.00
6514;BME280;3290;47.716;9.070;2022-07-23T06:18:55;97062.56;;;21.68;100.00
6514;BME280;3290;47.716;9.070;2022-07-23T06:21:20;97085.50;;;21.30;100.00
6514;BME280;3290;47.716;9.070;2022-07-23T06:23:46;97067.16;;;21.62;100.00
6514;BME280;3290;47.716;9.070;2022-07-23T06:26:11;97071.16;;;21.93;100.00
6514;BME280;3290;47.716;9.070;2022-07-23T06:28:37;97079.00;;;21.51;100.00
6514;BME280;3290;47.716;9.070;2022-07-23T06:31:02;97067.44;;;21.61;100.00
6514;BME280;3290;47.716;9.070;2022-07-23T06:33:27;97067.66;;;21.64;100.00
6514;BME280;3290;47.716;9.070;2022-07-23T06:35:53;97065.91;;;21.83;100.00
6514;BME280;3290;47.716;9.070;2022-07-23T06:38:18;97090.88;;;21.97;100.00
6514;BME280;3290;47.716;9.070;2022-07-23T06:40:43;97095.72;;;21.62;100.00
6514;BME280;3290;47.716;9.070;2022-07-23T06:43:10;97106.34;;;21.67;100.00
6514;BME280;3290;47.716;9.070;2022-07-23T06:45:35;97088.44;;;21.72;100.00
6514;BME280;3290;47.716;9.070;2022-07-23T06:48:01;97095.66;;;22.00;100.00
6514;BME280;3290;47.716;9.070;2022-07-23T06:50:28;97095.47;;;22.19;100.00
6514;BME280;3290;47.716;9.070;2022-07-23T06:52:53;97111.13;;;21.98;100.00
6514;BME280;3290;47.716;9.070;2022-07-23T06:55:18;97103.13;;;21.98;100.00
6514;BME280;3290;47.716;9.070;2022-07-23T06:57:44;97123.59;;;22.07;100.00
6514;BME280;3290;47.716;9.070;2022-07-23T07:00:10;97129.66;;;22.17;100.00
6514;BME280;3290;47.716;9.070;2022-07-23T07:02:36;97125.13;;;22.18;100.00
6514;BME280;3290;47.716;9.070;2022-07-23T07:05:02;97133.88;;;22.23;100.00
6514;BME280;3290;47.716;9.070;2022-07-23T07:07:27;97137.00;;;22.30;100.00
6514;BME280;3290;47.716;9.070;2022-07-23T07:09:53;97145.53;;;22.55;100.00
6514;BME280;3290;47.716;9.070;2022-07-23T07:12:18;97142.84;;;22.04;100.00
6514;BME280;3290;47.716;9.070;2022-07-23T07:14:44;97139.81;;;22.15;100.00
6514;BME280;3290;47.716;9.070;2022-07-23T07:17:09;97149.72;;;22.10;100.00
6514;BME280;3290;47.716;9.070;2022-07-23T07:19:36;97150.28;;;22.40;100.00
6514;BME280;3290;47.716;9.070;2022-07-23T07:22:02;97143.78;;;22.46;100.00
6514;BME280;3290;47.716;9.070;2022-07-23T07:24:27;97145.03;;;22.30;100.00
6514;BME280;3290;47.716;9.070;2022-07-23T07:26:53;97148.84;;;22.48;100.00
6514;BME280;3290;47.716;9.070;2022-07-23T07:29:18;97155.03;;;22.43;100.00
6514;BME280;3290;47.716;9.070;2022-07-23T07:31:44;97153.00;;;22.82;100.00
6514;BME280;3290;47.716;9.070;2022-07-23T07:34:09;97155.50;;;22.50;100.00
6514;BME280;3290;47.716;9.070;2022-07-23T07:36:35;97159.66;;;22.61;100.00
6514;BME280;3290;47.716;9.070;2022-07-23T07:39:03;97167.09;;;22.64;100.00
6514;BME280;3290;47.716;9.070;2022-07-23T07:41:29;97179.81;;;22.49;100.00
6514;BME280;3290;47.716;9.070;2022-07-23T07:43:54;97191.31;;;22.49;100.00
6514;BME280;3290;47.716;9.070;2022-07-23T07:46:20;97173.13;;;22.74;100.00
6514;BME280;3290;47.716;9.070;2022-07-23T07:48:45;97168.94;;;22.68;100.00
6514;BME280;3290;47.716;9.070;2022-07-23T07:51:10;97171.78;;;22.49;100.00
6514;BME280;3290;47.716;9.070;2022-07-23T07:53:36;97169.50;;;22.65;100.00
6514;BME280;3290;47.716;9.070;2022-07-23T07:56:01;97164.50;;;23.05;100.00
6514;BME280;3290;47.716;9.070;2022-07-23T07:58:27;97182.47;;;22.77;100.00
6514;BME280;3290;47.716;9.070;2022-07-23T08:00:52;97192.88;;;22.50;100.00
6514;BME280;3290;47.716;9.070;2022-07-23T08:03:18;97198.13;;;22.37;100.00
6514;BME280;3290;47.716;9.070;2022-07-23T08:05:43;97203.22;;;22.33;100.00
6514;BME280;3290;47.716;9.070;2022-07-23T08:08:09;97196.59;;;22.54;100.00
6514;BME280;3290;47.716;9.070;2022-07-23T08:10:39;97189.91;;;22.80;100.00
6514;BME280;3290;47.716;9.070;2022-07-23T08:13:05;97183.38;;;22.91;100.00
6514;BME280;3290;47.716;9.070;2022-07-23T08:15:30;97186.34;;;23.12;100.00
6514;BME280;3290;47.716;9.070;2022-07-23T08:17:57;97188.16;;;23.17;100.00
6514;BME280;3290;47.716;9.070;2022-07-23T08:20:23;97184.50;;;23.31;100.00
6514;BME280;3290;47.716;9.070;2022-07-23T08:23:06;97194.03;;;23.37;100.00
6514;BME280;3290;47.716;9.070;2022-07-23T08:25:34;97191.94;;;23.34;100.00
6514;BME280;3290;47.716;9.070;2022-07-23T08:28:00;97187.47;;;22.83;100.00
6514;BME280;3290;47.716;9.070;2022-07-23T08:30:29;97186.44;;;22.56;100.00
6514;BME280;3290;47.716;9.070;2022-07-23T08:32:56;97182.28;;;22.68;100.00
6514;BME280;3290;47.716;9.070;2022-07-23T08:35:33;97188.84;;;22.81;100.00
6514;BME280;3290;47.716;9.070;2022-07-23T08:38:00;97192.16;;;22.96;100.00
6514;BME280;3290;47.716;9.070;2022-07-23T08:40:27;97193.00;;;23.15;100.00
6514;BME280;3290;47.716;9.070;2022-07-23T08:42:53;97182.06;;;22.88;100.00
6514;BME280;3290;47.716;9.070;2022-07-23T08:45:20;97180.56;;;23.24;100.00
6514;BME280;3290;47.716;9.070;2022-07-23T08:47:54;97178.84;;;22.91;100.00
6514;BME280;3290;47.716;9.070;2022-07-23T08:50:21;97184.06;;;23.42;100.00
6514;BME280;3290;47.716;9.070;2022-07-23T08:52:48;97176.53;;;23.26;100.00
6514;BME280;3290;47.716;9.070;2022-07-23T08:55:16;97170.78;;;23.56;100.00
6514;BME280;3290;47.716;9.070;2022-07-23T08:57:43;97189.41;;;23.42;100.00
6514;BME280;3290;47.716;9.070;2022-07-23T09:00:09;97180.13;;;23.76;100.00
6514;BME280;3290;47.716;9.070;2022-07-23T09:02:42;97180.13;;;23.76;100.00
6514;BME280;3290;47.716;9.070;2022-07-23T09:05:09;97188.34;;;23.43;100.00
6514;BME280;3290;47.716;9.070;2022-07-23T09:07:37;97180.28;;;23.67;100.00
6514;BME280;3290;47.716;9.070;2022-07-23T09:10:08;97188.97;;;23.17;100.00
6514;BME280;3290;47.716;9.070;2022-07-23T09:12:34;97187.47;;;23.30;100.00
6514;BME280;3290;47.716;9.070;2022-07-23T09:15:07;97199.22;;;23.29;100.00
6514;BME280;3290;47.716;9.070;2022-07-23T09:17:39;97201.69;;;23.25;100.00
6514;BME280;3290;47.716;9.070;2022-07-23T09:20:10;97206.47;;;23.28;100.00
6514;BME280;3290;47.716;9.070;2022-07-23T09:22:36;97214.63;;;23.60;100.00
6514;BME280;3290;47.716;9.070;2022-07-23T09:25:14;97215.34;;;23.65;100.00
6514;BME280;3290;47.716;9.070;2022-07-23T09:30:19;97209.41;;;23.86;100.00
6514;BME280;3290;47.716;9.070;2022-07-23T09:33:04;97197.22;;;24.12;100.00
6514;BME280;3290;47.716;9.070;2022-07-23T09:36:06;97202.56;;;23.80;100.00
6514;BME280;3290;47.716;9.070;2022-07-23T09:38:31;97197.34;;;23.71;100.00
6514;BME280;3290;47.716;9.070;2022-07-23T09:41:10;97201.31;;;23.91;100.00
6514;BME280;3290;47.716;9.070;2022-07-23T09:43:36;97197.84;;;23.73;100.00
6514;BME280;3290;47.716;9.070;2022-07-23T09:46:24;97199.94;;;23.57;100.00
6514;BME280;3290;47.716;9.070;2022-07-23T09:48:54;97201.16;;;24.01;100.00
6514;BME280;3290;47.716;9.070;2022-07-23T09:51:21;97187.56;;;23.98;100.00
6514;BME280;3290;47.716;9.070;2022-07-23T09:54:02;97195.47;;;24.21;100.00
6514;BME280;3290;47.716;9.070;2022-07-23T09:56:28;97194.56;;;23.94;100.00
6514;BME280;3290;47.716;9.070;2022-07-23T09:58:54;97183.56;;;24.27;100.00
6514;BME280;3290;47.716;9.070;2022-07-23T10:01:50;97193.59;;;23.72;100.00
6514;BME280;3290;47.716;9.070;2022-07-23T10:04:17;97190.94;;;24.03;100.00
6514;BME280;3290;47.716;9.070;2022-07-23T10:06:43;97182.97;;;24.48;100.00
6514;BME280;3290;47.716;9.070;2022-07-23T10:09:12;97186.16;;;24.18;100.00
6514;BME280;3290;47.716;9.070;2022-07-23T10:11:38;97189.69;;;24.91;100.00
6514;BME280;3290;47.716;9.070;2022-07-23T10:14:04;97188.09;;;24.76;100.00
6514;BME280;3290;47.716;9.070;2022-07-23T10:16:34;97184.59;;;24.89;100.00
6514;BME280;3290;47.716;9.070;2022-07-23T10:18:59;97191.88;;;25.02;100.00
6514;BME280;3290;47.716;9.070;2022-07-23T10:21:34;97192.25;;;24.82;100.00
6514;BME280;3290;47.716;9.070;2022-07-23T10:24:36;97195.94;;;25.13;100.00
6514;BME280;3290;47.716;9.070;2022-07-23T10:33:16;97202.66;;;24.70;100.00
6514;BME280;3290;47.716;9.070;2022-07-23T10:38:20;97193.75;;;24.30;100.00
6514;BME280;3290;47.716;9.070;2022-07-23T10:40:58;97197.22;;;24.12;100.00
6514;BME280;3290;47.716;9.070;2022-07-23T10:43:25;97199.56;;;24.00;100.00
6514;BME280;3290;47.716;9.070;2022-07-23T10:45:52;97190.00;;;24.31;100.00
6514;BME280;3290;47.716;9.070;2022-07-23T10:48:20;97190.16;;;23.84;100.00
6514;BME280;3290;47.716;9.070;2022-07-23T10:56:47;97181.91;;;23.99;100.00
6514;BME280;3290;47.716;9.070;2022-07-23T10:59:04;97188.41;;;23.93;100.00
6514;BME280;3290;47.716;9.070;2022-07-23T11:01:38;97192.91;;;23.79;100.00
6514;BME280;3290;47.716;9.070;2022-07-23T11:04:05;97187.84;;;23.96;100.00
6514;BME280;3290;47.716;9.070;2022-07-23T11:09:29;97186.81;;;24.42;100.00
6514;BME280;3290;47.716;9.070;2022-07-23T11:15:11;97195.75;;;25.23;100.00
6514;BME280;3290;47.716;9.070;2022-07-23T11:18:00;97197.50;;;24.74;100.00
6514;BME280;3290;47.716;9.070;2022-07-23T11:20:26;97200.09;;;24.34;100.00
6514;BME280;3290;47.716;9.070;2022-07-23T11:22:57;97202.22;;;24.18;100.00
6514;BME280;3290;47.716;9.070;2022-07-23T11:27:50;97191.88;;;24.12;100.00
6514;BME280;3290;47.716;9.070;2022-07-23T11:35:35;97188.16;;;24.26;100.00
6514;BME280;3290;47.716;9.070;2022-07-23T11:38:21;97183.06;;;24.43;100.00
6514;BME280;3290;47.716;9.070;2022-07-23T11:40:49;97177.34;;;23.81;100.00
6514;BME280;3290;47.716;9.070;2022-07-23T11:43:15;97176.69;;;24.39;100.00
6514;BME280;3290;47.716;9.070;2022-07-23T11:45:43;97173.09;;;24.30;100.00
6514;BME280;3290;47.716;9.070;2022-07-23T11:48:15;97186.66;;;24.65;100.00
6514;BME280;3290;47.716;9.070;2022-07-23T11:50:41;97188.22;;;24.40;100.00
6514;BME280;3290;47.716;9.070;2022-07-23T11:53:07;97176.66;;;24.26;100.00
6514;BME280;3290;47.716;9.070;2022-07-23T11:55:32;97178.13;;;24.00;100.00
6514;BME280;3290;47.716;9.070;2022-07-23T11:57:58;97188.34;;;23.98;100.00
6514;BME280;3290;47.716;9.070;2022-07-23T12:00:25;97172.06;;;24.26;100.00
6514;BME280;3290;47.716;9.070;2022-07-23T12:02:53;97168.22;;;25.04;100.00
6514;BME280;3290;47.716;9.070;2022-07-23T12:05:21;97174.38;;;25.18;100.00
6514;BME280;3290;47.716;9.070;2022-07-23T12:07:50;97165.13;;;25.85;98.14
6514;BME280;3290;47.716;9.070;2022-07-23T12:15:13;97165.03;;;25.77;94.07
6514;BME280;3290;47.716;9.070;2022-07-23T12:17:41;97163.56;;;25.71;93.90
6514;BME280;3290;47.716;9.070;2022-07-23T12:20:09;97164.38;;;25.93;93.01
6514;BME280;3290;47.716;9.070;2022-07-23T12:22:45;97152.09;;;26.74;91.90
6514;BME280;3290;47.716;9.070;2022-07-23T12:25:16;97151.59;;;27.02;88.54
6514;BME280;3290;47.716;9.070;2022-07-23T12:27:43;97160.53;;;26.08;92.98
6514;BME280;3290;47.716;9.070;2022-07-23T12:30:19;97153.34;;;27.15;86.70
6514;BME280;3290;47.716;9.070;2022-07-23T12:32:49;97153.47;;;27.66;84.32
6514;BME280;3290;47.716;9.070;2022-07-23T12:35:15;97155.28;;;27.23;84.34
6514;BME280;3290;47.716;9.070;2022-07-23T12:37:42;97145.38;;;27.66;82.69
6514;BME280;3290;47.716;9.070;2022-07-23T12:40:28;97153.47;;;26.94;84.11
6514;BME280;3290;47.716;9.070;2022-07-23T12:42:59;97157.03;;;27.28;83.83
6514;BME280;3290;47.716;9.070;2022-07-23T12:45:26;97150.25;;;27.30;84.15
6514;BME280;3290;47.716;9.070;2022-07-23T12:50:40;97146.50;;;27.48;83.93
6514;BME280;3290;47.716;9.070;2022-07-23T12:53:16;97146.03;;;27.88;80.35
6514;BME280;3290;47.716;9.070;2022-07-23T12:55:43;97146.94;;;28.42;77.39
6514;BME280;3290;47.716;9.070;2022-07-23T12:58:18;97149.09;;;28.65;75.34
6514;BME280;3290;47.716;9.070;2022-07-23T13:03:32;97136.84;;;27.72;77.21
6514;BME280;3290;47.716;9.070;2022-07-23T13:05:59;97141.53;;;28.42;73.25
6514;BME280;3290;47.716;9.070;2022-07-23T13:08:27;97146.34;;;28.03;74.52
6514;BME280;3290;47.716;9.070;2022-07-23T13:10:53;97137.91;;;28.30;74.92
6514;BME280;3290;47.716;9.070;2022-07-23T13:13:27;97136.75;;;28.93;76.69
6514;BME280;3290;47.716;9.070;2022-07-23T13:15:53;97135.72;;;29.06;75.82
6514;BME280;3290;47.716;9.070;2022-07-23T13:18:19;97134.31;;;29.08;70.35
6514;BME280;3290;47.716;9.070;2022-07-23T13:20:47;97127.53;;;28.94;75.59
6514;BME280;3290;47.716;9.070;2022-07-23T13:23:13;97127.00;;;29.38;70.16
6514;BME280;3290;47.716;9.070;2022-07-23T13:25:38;97122.59;;;28.67;70.83
6514;BME280;3290;47.716;9.070;2022-07-23T13:28:04;97123.19;;;28.02;73.33
6514;BME280;3290;47.716;9.070;2022-07-23T13:30:30;97119.56;;;28.61;73.33
6514;BME280;3290;47.716;9.070;2022-07-23T13:32:56;97122.03;;;28.37;74.08
6514;BME280;3290;47.716;9.070;2022-07-23T13:35:21;97117.34;;;29.00;75.18
6514;BME280;3290;47.716;9.070;2022-07-23T13:37:47;97125.63;;;29.32;71.64
6514;BME280;3290;47.716;9.070;2022-07-23T13:40:12;97118.91;;;29.09;72.69
6514;BME280;3290;47.716;9.070;2022-07-23T13:42:38;97122.88;;;29.40;67.73
6514;BME280;3290;47.716;9.070;2022-07-23T13:45:05;97119.47;;;29.23;70.97
6514;BME280;3290;47.716;9.070;2022-07-23T13:47:31;97114.81;;;29.32;70.37
6514;BME280;3290;47.716;9.070;2022-07-23T13:49:56;97107.09;;;29.62;68.72
6514;BME280;3290;47.716;9.070;2022-07-23T13:52:21;97104.28;;;29.79;67.94
6514;BME280;3290;47.716;9.070;2022-07-23T13:54:47;97103.91;;;29.89;66.08